Time;durP1;ratioP1;P1;durP2;ratioP2;P2;SDS_P1;SDS_P2;PMS_P1;PMS_P2;Temp;Humidity;BMP_temperature;BMP_pressure;BME280_temperature;BME280_humidity;BME280_pressure;Samples;Min_cycle;Max_cycle;Signal;HPM_P1;HPM_P2
2022/06/12 00:00:25;;;;;;;4.80;1.33;;;;;;;17.77;42.44;93125.50;4781353;30;20128;-74
2022/06/12 00:02:51;;;;;;;2.53;1.20;;;;;;;17.75;42.65;93122.38;4783948;29;20498;-74
2022/06/12 00:05:19;;;;;;;2.03;1.30;;;;;;;17.72;42.60;93125.63;4783677;29;20095;-74
2022/06/12 00:07:45;;;;;;;2.47;1.20;;;;;;;17.70;42.10;93120.66;4766338;30;20126;-74
2022/06/12 00:10:11;;;;;;;2.65;1.30;;;;;;;17.67;42.85;93122.09;4773603;30;20127;-75
2022/06/12 00:12:39;;;;;;;3.80;1.30;;;;;;;17.64;43.32;93120.03;4785059;29;20084;-74
2022/06/12 00:15:05;;;;;;;3.20;1.40;;;;;;;17.59;42.76;93122.09;4787605;30;20212;-74
2022/06/12 00:17:31;;;;;;;1.95;1.17;;;;;;;17.56;42.91;93120.84;4772596;30;20415;-74
2022/06/12 00:19:57;;;;;;;2.65;1.25;;;;;;;17.51;42.65;93121.00;4788764;29;20084;-75
2022/06/12 00:22:23;;;;;;;5.07;1.40;;;;;;;17.47;43.09;93114.75;4771272;30;20047;-75
2022/06/12 00:24:49;;;;;;;2.50;1.33;;;;;;;17.42;42.94;93113.06;4788549;30;20525;-74
2022/06/12 00:27:14;;;;;;;2.92;1.40;;;;;;;17.39;43.84;93112.94;4787259;30;20104;-75
2022/06/12 00:29:41;;;;;;;3.80;1.50;;;;;;;17.39;43.90;93112.94;4787223;30;20047;-74
2022/06/12 00:32:13;;;;;;;2.50;1.38;;;;;;;17.43;43.31;93108.56;4785065;30;20039;-74
2022/06/12 00:34:49;;;;;;;2.88;1.50;;;;;;;17.55;42.60;93111.34;4786812;29;20058;-74
2022/06/12 00:37:17;;;;;;;2.83;1.50;;;;;;;17.67;41.68;93118.63;4788555;29;20046;-74
2022/06/12 00:39:45;;;;;;;2.35;1.20;;;;;;;17.78;40.39;93116.44;4787325;30;20038;-75
2022/06/12 00:42:33;;;;;;;3.17;1.40;;;;;;;17.86;40.25;93120.97;4786337;30;20055;-74
2022/06/12 00:45:21;;;;;;;2.50;1.40;;;;;;;17.92;40.36;93116.28;4788334;29;20067;-74
2022/06/12 00:47:47;;;;;;;2.78;1.45;;;;;;;17.97;39.87;93110.78;4788211;29;20044;-75
2022/06/12 00:50:12;;;;;;;5.15;1.30;;;;;;;18.00;39.58;93110.97;4772490;30;20060;-75
2022/06/12 00:52:47;;;;;;;3.60;1.30;;;;;;;18.04;38.97;93117.19;4786812;30;20039;-74
2022/06/12 00:55:49;;;;;;;2.05;1.27;;;;;;;18.06;39.41;93120.28;4783757;30;20048;-75
2022/06/12 00:58:19;;;;;;;3.88;1.27;;;;;;;18.06;39.26;93119.53;4770322;30;20032;-75
2022/06/12 01:00:47;;;;;;;1.95;1.20;;;;;;;18.18;38.75;93129.44;4770326;30;20048;-74
2022/06/12 01:03:14;;;;;;;6.18;1.80;;;;;;;18.16;46.97;93128.97;4776608;30;20059;-75
2022/06/12 01:08:26;;;;;;;3.13;1.70;;;;;;;17.99;48.85;93121.84;4789343;29;20113;-74
2022/06/12 01:10:56;;;;;;;3.95;1.67;;;;;;;17.93;49.86;93134.50;4781745;30;20054;-74
2022/06/12 01:13:29;;;;;;;3.95;1.70;;;;;;;17.81;50.78;93134.34;4787754;29;20072;-74
2022/06/12 01:15:59;;;;;;;4.00;1.50;;;;;;;17.68;50.09;93130.78;4787033;29;20046;-74
2022/06/12 01:18:30;;;;;;;3.47;1.48;;;;;;;17.58;48.07;93139.06;4785851;30;20074;-75
2022/06/12 01:20:58;;;;;;;3.10;1.50;;;;;;;17.54;46.48;93140.75;4785280;29;20043;-74
2022/06/12 01:23:42;;;;;;;2.38;1.33;;;;;;;17.46;46.63;93144.97;4786771;30;20042;-74
2022/06/12 01:26:42;;;;;;;4.35;1.50;;;;;;;17.37;45.97;93149.50;4782885;29;20031;-75
2022/06/12 01:29:16;;;;;;;1.63;1.25;;;;;;;17.24;45.88;93144.03;4786609;30;20495;-74
2022/06/12 01:31:52;;;;;;;2.42;1.30;;;;;;;17.16;45.94;93144.84;4785476;29;20039;-74
2022/06/12 01:34:32;;;;;;;3.45;1.50;;;;;;;17.09;46.31;93151.66;4786739;29;20082;-74
2022/06/12 01:37:12;;;;;;;2.72;1.50;;;;;;;16.95;47.29;93157.09;4784859;29;20035;-74
2022/06/12 01:39:47;;;;;;;4.18;1.48;;;;;;;16.88;47.55;93162.06;4785886;30;21509;-74
2022/06/12 01:42:31;;;;;;;4.95;1.20;;;;;;;16.77;48.43;93158.88;4785685;29;20399;-74
2022/06/12 01:45:13;;;;;;;3.28;1.55;;;;;;;16.72;49.45;93170.38;4783893;30;20054;-74
2022/06/12 01:47:57;;;;;;;3.05;1.52;;;;;;;16.67;50.48;93162.59;4786003;29;20043;-74
2022/06/12 01:50:41;;;;;;;3.05;1.42;;;;;;;16.51;51.35;93150.91;4785007;29;20486;-74
2022/06/12 01:53:19;;;;;;;2.47;1.50;;;;;;;16.48;51.47;93165.47;4786004;30;20076;-74
2022/06/12 01:55:48;;;;;;;5.03;1.63;;;;;;;16.40;51.44;93164.38;4785342;29;20041;-74
2022/06/12 01:58:20;;;;;;;2.83;1.50;;;;;;;16.31;51.30;93166.22;4784309;30;20040;-74
2022/06/12 02:00:55;;;;;;;3.00;1.60;;;;;;;16.26;51.57;93157.63;4783868;29;20055;-75
2022/06/12 02:03:31;;;;;;;4.13;1.55;;;;;;;16.22;51.42;93152.19;4785010;30;20089;-74
2022/06/12 02:06:18;;;;;;;2.65;1.50;;;;;;;16.18;51.57;93151.25;4783892;30;20046;-74
2022/06/12 02:08:51;;;;;;;5.03;1.50;;;;;;;16.13;51.80;93154.03;4783552;29;20046;-74
2022/06/12 02:14:42;;;;;;;4.25;1.63;;;;;;;16.07;51.89;93150.72;4785871;30;20084;-74
2022/06/12 02:17:13;;;;;;;3.15;1.40;;;;;;;16.05;52.59;93150.25;4784743;30;20040;-75
2022/06/12 02:19:43;;;;;;;3.47;1.57;;;;;;;16.02;51.74;93149.00;4783563;30;20035;-74
2022/06/12 02:22:16;;;;;;;3.38;1.50;;;;;;;16.01;51.15;93144.81;4768801;30;20066;-74
2022/06/12 02:24:57;;;;;;;2.70;1.40;;;;;;;15.95;50.68;93159.22;4775596;30;20043;-74
2022/06/12 02:27:29;;;;;;;2.80;1.50;;;;;;;15.88;50.32;93158.84;4786307;30;20140;-74
2022/06/12 02:30:10;;;;;;;3.42;1.42;;;;;;;15.86;50.10;93158.38;4785760;29;20046;-74
2022/06/12 02:32:38;;;;;;;3.63;1.70;;;;;;;15.85;50.37;93156.84;4785503;30;20081;-74
2022/06/12 02:35:32;;;;;;;3.50;1.50;;;;;;;15.81;50.41;93154.00;4784742;30;20595;-74
2022/06/12 02:38:04;;;;;;;3.55;1.70;;;;;;;15.77;50.43;93152.28;4779692;29;20058;-74
2022/06/12 02:40:38;;;;;;;4.28;1.52;;;;;;;15.70;50.83;93146.63;4769645;30;20071;-74
2022/06/12 02:43:10;;;;;;;3.67;1.50;;;;;;;15.68;50.96;93148.78;4786179;29;20413;-74
2022/06/12 02:45:45;;;;;;;3.40;1.52;;;;;;;15.69;50.96;93156.38;4789214;29;20062;-74
2022/06/12 02:48:11;;;;;;;2.78;1.50;;;;;;;15.69;51.52;93150.31;4768472;30;20051;-74
2022/06/12 02:50:53;;;;;;;3.40;1.52;;;;;;;15.67;51.53;93148.00;4775882;30;20035;-74
2022/06/12 02:53:24;;;;;;;3.22;1.50;;;;;;;15.64;51.39;93139.91;4786328;29;20494;-73
2022/06/12 02:55:56;;;;;;;2.60;1.40;;;;;;;15.64;51.03;93145.16;4786196;29;20432;-74
2022/06/12 02:58:51;;;;;;;2.88;1.42;;;;;;;15.62;50.78;93150.75;4786139;30;20454;-74
2022/06/12 03:01:22;;;;;;;2.58;1.48;;;;;;;15.60;51.06;93158.97;4751116;30;20139;-73
2022/06/12 03:04:17;;;;;;;2.85;1.50;;;;;;;15.59;51.09;93161.91;4786040;30;20080;-74
2022/06/12 03:06:43;;;;;;;3.00;1.45;;;;;;;15.59;51.08;93157.41;4778533;30;20082;-74
2022/06/12 03:09:09;;;;;;;3.08;1.50;;;;;;;15.61;51.04;93155.25;4784884;30;20475;-74
2022/06/12 03:11:41;;;;;;;3.08;1.50;;;;;;;15.58;51.03;93158.50;4766047;30;20202;-74
2022/06/12 03:14:08;;;;;;;;;;;;;;;15.59;51.20;93157.41;4782211;30;20114;-74
2022/06/12 03:16:37;;;;;;;3.00;1.40;;;;;;;15.55;50.87;93159.06;4768170;30;19917;-74
2022/06/12 03:19:03;;;;;;;2.70;1.30;;;;;;;15.54;50.38;93165.44;4772686;30;20023;-74
2022/06/12 03:21:39;;;;;;;2.75;1.40;;;;;;;15.56;50.39;93159.88;4783017;30;20073;-74
2022/06/12 03:24:26;;;;;;;2.20;1.30;;;;;;;15.54;50.37;93165.44;4783177;29;20406;-74
2022/06/12 03:27:19;;;;;;;2.25;1.30;;;;;;;15.53;50.17;93163.09;4785740;30;20043;-74
2022/06/12 03:30:09;;;;;;;3.42;1.48;;;;;;;15.50;49.96;93161.06;4782898;30;20043;-74
2022/06/12 03:32:56;;;;;;;3.00;1.50;;;;;;;15.50;49.38;93169.00;4783874;29;20047;-74
2022/06/12 03:35:35;;;;;;;2.60;1.40;;;;;;;15.49;49.29;93165.56;4783695;30;20039;-74
2022/06/12 03:38:16;;;;;;;3.33;1.48;;;;;;;15.52;49.07;93172.09;4784237;30;20124;-74
2022/06/12 03:40:54;;;;;;;2.72;1.48;;;;;;;15.49;49.28;93168.22;4768006;30;20043;-74
2022/06/12 03:43:57;;;;;;;2.90;1.50;;;;;;;15.49;48.76;93177.97;4777606;30;20051;-74
2022/06/12 03:47:04;;;;;;;2.50;1.35;;;;;;;15.42;48.46;93170.47;4784713;30;20044;-74
2022/06/12 03:49:38;;;;;;;4.72;1.50;;;;;;;15.40;48.95;93172.63;4775465;30;20534;-74
2022/06/12 03:52:27;;;;;;;2.60;1.40;;;;;;;15.37;48.76;93175.88;4789358;29;20537;-74
2022/06/12 03:55:03;;;;;;;2.30;1.33;;;;;;;15.36;48.77;93176.97;4771475;30;20032;-74
2022/06/12 03:57:53;;;;;;;4.05;1.30;;;;;;;15.36;49.25;93179.59;4770097;30;20074;-74
2022/06/12 04:00:34;;;;;;;2.95;1.42;;;;;;;15.39;49.59;93187.69;4771293;30;20040;-74
2022/06/12 04:03:05;;;;;;;4.85;1.40;;;;;;;15.40;49.61;93189.25;4771430;30;20054;-74
2022/06/12 04:05:37;;;;;;;1.98;1.27;;;;;;;15.45;49.97;93198.91;4787829;30;20078;-74
2022/06/12 04:08:06;;;;;;;2.83;1.40;;;;;;;15.48;49.79;93193.03;4789036;29;20153;-74
2022/06/12 04:10:36;;;;;;;3.63;1.50;;;;;;;15.50;49.89;93198.00;4788840;29;20031;-74
2022/06/12 04:13:06;;;;;;;3.40;1.27;;;;;;;15.52;50.21;93199.28;4788973;29;20040;-74
2022/06/12 04:15:39;;;;;;;3.45;1.55;;;;;;;15.55;50.14;93200.53;4788619;30;20066;-74
2022/06/12 04:18:06;;;;;;;3.85;1.40;;;;;;;15.56;50.55;93199.47;4789059;29;20039;-74
2022/06/12 04:20:54;;;;;;;3.47;1.40;;;;;;;15.54;51.38;93197.13;4787553;30;20043;-74
2022/06/12 04:23:26;;;;;;;2.78;1.40;;;;;;;15.56;50.97;93204.75;4787523;30;20047;-74
2022/06/12 04:25:56;;;;;;;3.10;1.50;;;;;;;15.58;51.23;93202.56;4787962;30;20043;-74
2022/06/12 04:28:39;;;;;;;3.92;1.60;;;;;;;15.59;51.06;93210.19;4788404;29;20482;-75
2022/06/12 04:31:15;;;;;;;3.25;1.27;;;;;;;15.60;51.42;93195.13;4787162;30;20128;-74
2022/06/12 04:34:18;;;;;;;3.10;1.40;;;;;;;15.66;51.00;93198.44;4770648;30;20415;-74
2022/06/12 04:36:46;;;;;;;2.28;1.30;;;;;;;15.70;50.90;93194.91;4787860;29;20513;-74
2022/06/12 04:39:14;;;;;;;2.85;1.40;;;;;;;15.76;50.78;93200.84;4771903;30;20028;-74
2022/06/12 04:41:41;;;;;;;3.38;1.50;;;;;;;15.80;51.00;93202.59;4787338;30;20134;-74
2022/06/12 04:44:07;;;;;;;3.90;1.85;;;;;;;15.85;50.85;93196.44;4784575;30;20146;-74
2022/06/12 04:46:35;;;;;;;3.20;1.40;;;;;;;15.90;51.00;93193.66;4784719;30;20138;-74
2022/06/12 04:49:02;;;;;;;2.58;1.38;;;;;;;15.93;51.58;93200.97;4785381;30;20088;-75
2022/06/12 04:51:29;;;;;;;2.45;1.50;;;;;;;15.93;52.18;93193.06;4788288;29;20517;-74
2022/06/12 04:53:54;;;;;;;5.55;1.52;;;;;;;15.96;51.80;93192.47;4787093;30;20501;-74
2022/06/12 04:56:23;;;;;;;2.67;1.40;;;;;;;15.98;51.70;93200.06;4787192;29;20059;-74
2022/06/12 04:58:49;;;;;;;2.85;1.60;;;;;;;16.02;51.97;93195.75;4786708;29;20032;-74
2022/06/12 05:01:15;;;;;;;5.60;1.65;;;;;;;16.07;52.16;93202.75;4786250;30;20043;-74
2022/06/12 05:03:41;;;;;;;5.60;1.70;;;;;;;16.12;52.19;93205.25;4788047;29;20439;-74
2022/06/12 05:06:07;;;;;;;6.22;2.10;;;;;;;16.18;52.60;93209.34;4787312;29;20486;-74
2022/06/12 05:08:34;;;;;;;6.30;2.13;;;;;;;16.27;53.39;93202.25;4784856;29;20093;-74
2022/06/12 05:11:00;;;;;;;6.30;2.40;;;;;;;16.36;55.16;93202.28;4772010;30;20082;-74
2022/06/12 05:13:25;;;;;;;6.93;2.55;;;;;;;16.39;55.20;93204.31;4771927;30;20070;-74
2022/06/12 05:15:51;;;;;;;9.48;3.13;;;;;;;16.49;57.07;93209.34;4787881;29;20053;-74
2022/06/12 05:18:19;;;;;;;12.40;3.78;;;;;;;16.56;57.77;93209.66;4784613;30;20486;-74
2022/06/12 05:20:46;;;;;;;8.40;3.38;;;;;;;16.63;58.22;93210.00;4786638;30;20435;-74
2022/06/12 05:23:11;;;;;;;9.23;3.63;;;;;;;16.73;59.37;93214.25;4787706;29;20047;-74
2022/06/12 05:25:37;;;;;;;10.02;4.10;;;;;;;16.83;59.19;93208.72;4786423;30;20566;-74
2022/06/12 05:28:05;;;;;;;9.93;3.60;;;;;;;16.93;58.93;93205.00;4787444;30;20043;-74
2022/06/12 05:30:34;;;;;;;10.38;3.75;;;;;;;17.08;59.27;93198.50;4786078;30;20043;-74
2022/06/12 05:33:01;;;;;;;11.90;3.78;;;;;;;17.23;60.31;93207.88;4787624;29;20049;-74
2022/06/12 05:35:29;;;;;;;14.35;4.43;;;;;;;17.36;60.20;93198.22;4787412;29;20067;-74
2022/06/12 05:37:55;;;;;;;10.95;4.30;;;;;;;17.48;59.96;93208.97;4787468;30;20031;-74
2022/06/12 05:40:27;;;;;;;10.60;4.35;;;;;;;17.62;59.87;93209.59;4770918;30;20134;-74
2022/06/12 05:42:53;;;;;;;11.63;3.80;;;;;;;17.81;59.68;93200.53;4786097;30;20131;-75
2022/06/12 05:45:23;;;;;;;11.88;3.63;;;;;;;18.42;58.53;93211.84;4787924;29;20495;-75
2022/06/12 05:47:53;;;;;;;10.30;3.42;;;;;;;19.26;56.50;93201.47;4787205;29;20039;-75
2022/06/12 05:50:22;;;;;;;9.93;2.90;;;;;;;20.07;53.77;93210.06;4782830;30;20411;-75
2022/06/12 05:52:47;;;;;;;9.27;3.05;;;;;;;20.84;50.48;93208.78;4785880;29;20042;-75
2022/06/12 05:55:13;;;;;;;6.78;2.38;;;;;;;21.51;47.97;93212.75;4785216;30;20107;-75
2022/06/12 05:57:39;;;;;;;5.00;1.98;;;;;;;22.17;43.74;93211.50;4785358;29;20043;-75
2022/06/12 06:00:09;;;;;;;6.07;2.10;;;;;;;22.86;40.39;93209.47;4784715;29;20042;-71
2022/06/12 06:02:38;;;;;;;3.95;1.70;;;;;;;23.48;39.57;93217.75;4785346;30;20047;-73
2022/06/12 06:05:06;;;;;;;3.42;1.70;;;;;;;23.97;38.25;93211.13;4785888;30;20055;-76
2022/06/12 06:07:33;;;;;;;4.85;1.63;;;;;;;24.37;36.48;93207.28;4786781;29;20039;-75
2022/06/12 06:09:59;;;;;;;4.75;1.70;;;;;;;24.61;41.31;93208.91;4785580;30;20043;-76
2022/06/12 06:12:25;;;;;;;3.30;1.60;;;;;;;25.05;42.13;93208.44;4782927;29;20526;-73
2022/06/12 06:14:51;;;;;;;4.18;1.50;;;;;;;24.94;41.70;93218.22;4786726;29;20126;-76
2022/06/12 06:17:16;;;;;;;5.45;1.58;;;;;;;25.27;40.67;93219.53;4785556;30;20031;-76
2022/06/12 06:19:42;;;;;;;2.95;1.60;;;;;;;25.22;40.58;93217.13;4770575;30;20054;-76
2022/06/12 06:22:07;;;;;;;4.35;1.63;;;;;;;25.12;42.14;93213.91;4785616;29;20087;-76
2022/06/12 06:24:33;;;;;;;8.25;1.98;;;;;;;25.16;41.82;93213.97;4781069;29;20030;-73
2022/06/12 06:26:59;;;;;;;6.45;1.70;;;;;;;24.77;42.24;93221.38;4785131;29;20502;-74
2022/06/12 06:29:24;;;;;;;3.28;1.50;;;;;;;25.04;39.86;93222.97;4784975;30;20494;-73
2022/06/12 06:31:50;;;;;;;3.88;1.50;;;;;;;24.37;42.57;93219.91;4783803;29;20043;-75
2022/06/12 06:34:15;;;;;;;2.85;1.60;;;;;;;23.78;44.10;93225.28;4779679;29;20104;-76
2022/06/12 06:36:41;;;;;;;3.05;1.60;;;;;;;22.93;41.19;93224.88;4768640;30;20051;-76
2022/06/12 06:39:07;;;;;;;6.50;1.58;;;;;;;23.01;45.42;93221.28;4784368;30;20150;-75
2022/06/12 06:41:32;;;;;;;2.95;1.50;;;;;;;22.59;45.96;93224.44;4784135;30;20113;-75
2022/06/12 06:47:01;;;;;;;4.40;1.60;;;;;;;22.75;47.41;93218.34;4783012;29;20039;-78
2022/06/12 06:49:27;;;;;;;2.78;1.30;;;;;;;22.58;46.21;93219.44;4782540;29;20540;-78
2022/06/12 06:51:53;;;;;;;3.28;1.42;;;;;;;22.66;42.46;93216.59;4789081;29;20458;-79
2022/06/12 06:54:19;;;;;;;6.18;1.70;;;;;;;22.50;47.12;93229.16;4783831;29;20047;-79
2022/06/12 06:56:46;;;;;;;3.30;1.60;;;;;;;22.75;45.59;93223.66;4787844;29;20074;-79
2022/06/12 06:59:13;;;;;;;3.15;1.40;;;;;;;22.81;45.49;93230.31;4789666;29;20126;-77
2022/06/12 07:01:39;;;;;;;5.53;1.80;;;;;;;22.89;43.89;93229.34;4785588;29;20418;-74
2022/06/12 07:04:05;;;;;;;4.10;1.60;;;;;;;23.07;44.56;93227.88;4800004;29;20131;-77
2022/06/12 07:06:31;;;;;;;2.40;1.50;;;;;;;23.28;43.28;93230.28;4788348;29;20039;-79
2022/06/12 07:08:58;;;;;;;3.53;1.70;;;;;;;23.32;40.52;93229.59;4788386;29;20039;-78
2022/06/12 07:11:25;;;;;;;4.88;1.83;;;;;;;23.18;44.21;93230.81;4780373;30;20062;-78
2022/06/12 07:13:52;;;;;;;3.40;1.55;;;;;;;23.05;42.35;93232.81;4786120;30;20055;-77
2022/06/12 07:16:20;;;;;;;4.07;1.60;;;;;;;23.39;42.28;93227.84;4789655;29;20572;-77
2022/06/12 07:18:46;;;;;;;3.42;1.60;;;;;;;23.44;40.92;93226.78;4773434;30;20176;-83
2022/06/12 07:21:12;;;;;;;3.58;1.80;;;;;;;23.47;41.77;93228.78;4785652;29;20085;-78
2022/06/12 07:23:40;;;;;;;4.22;1.92;;;;;;;23.58;40.99;93226.34;4772409;30;20047;-78
2022/06/12 07:26:14;;;;;;;4.65;1.88;;;;;;;23.75;37.42;93233.97;4788306;29;20259;-77
2022/06/12 07:28:40;;;;;;;7.22;2.00;;;;;;;23.56;36.56;93236.59;4788574;30;20035;-77
2022/06/12 07:31:07;;;;;;;5.70;1.88;;;;;;;23.49;38.38;93235.31;4789237;30;20027;-78
2022/06/12 07:33:34;;;;;;;4.93;2.13;;;;;;;23.55;38.49;93241.16;4789934;30;20040;-79
2022/06/12 07:35:59;;;;;;;5.18;2.05;;;;;;;23.43;39.50;93241.28;4791667;30;20066;-79
2022/06/12 07:38:27;;;;;;;6.40;2.15;;;;;;;23.27;40.79;93242.09;4790658;30;20522;-78
2022/06/12 07:40:59;;;;;;;3.95;1.90;;;;;;;23.23;43.12;93243.13;4792175;29;20087;-78
2022/06/12 07:43:27;;;;;;;4.90;2.10;;;;;;;23.37;42.04;93248.81;4791591;29;20051;-79
2022/06/12 07:45:53;;;;;;;2.72;1.70;;;;;;;23.47;43.53;93248.25;4791448;29;20047;-78
2022/06/12 07:48:20;;;;;;;2.95;1.77;;;;;;;23.45;47.07;93239.81;4790394;30;20051;-79
2022/06/12 07:50:48;;;;;;;3.60;1.85;;;;;;;23.62;45.75;93233.31;4790072;30;20043;-78
2022/06/12 07:53:14;;;;;;;3.58;1.60;;;;;;;23.47;44.32;93237.56;4759465;30;20502;-79
2022/06/12 07:55:40;;;;;;;2.85;1.70;;;;;;;23.17;45.91;93233.81;4774900;30;20527;-80
2022/06/12 07:58:07;;;;;;;3.03;1.77;;;;;;;23.01;45.32;93231.97;4771634;30;20355;-78
2022/06/12 08:00:33;;;;;;;3.50;1.60;;;;;;;23.03;45.09;93235.06;4771302;30;20047;-77
2022/06/12 08:02:59;;;;;;;2.80;1.52;;;;;;;22.96;43.83;93240.19;4772163;30;20036;-78
2022/06/12 08:05:25;;;;;;;4.78;2.17;;;;;;;23.23;42.41;93248.47;4756896;30;20055;-78
2022/06/12 08:07:50;;;;;;;4.20;1.70;;;;;;;23.46;44.96;93241.38;4788993;30;20078;-78
2022/06/12 08:10:17;;;;;;;4.35;1.60;;;;;;;23.35;45.20;93248.38;4790721;29;20047;-83
2022/06/12 08:12:44;;;;;;;3.92;1.80;;;;;;;23.40;46.45;93237.41;4790984;29;20044;-78
2022/06/12 08:15:14;;;;;;;2.80;1.73;;;;;;;23.26;47.09;93243.22;4788663;30;20118;-79
2022/06/12 08:17:40;;;;;;;5.25;1.90;;;;;;;23.03;47.09;93235.06;4788842;30;20405;-79
2022/06/12 08:20:24;;;;;;;5.65;1.88;;;;;;;23.20;47.05;93227.81;4788911;30;20039;-80
2022/06/12 08:23:26;;;;;;;4.90;1.85;;;;;;;23.15;45.84;93236.09;4788869;30;20073;-79
2022/06/12 08:26:09;;;;;;;3.05;1.65;;;;;;;23.43;45.61;93223.34;4786057;30;20040;-80
2022/06/12 08:28:37;;;;;;;;;;;;;;;23.31;44.33;93226.16;4773953;30;20107;-79
2022/06/12 08:31:06;;;;;;;3.95;2.00;;;;;;;23.35;44.34;93219.00;4786401;30;19913;-78
2022/06/12 08:33:33;;;;;;;4.47;1.90;;;;;;;23.33;44.18;93221.25;4771993;30;20050;-81
2022/06/12 08:35:59;;;;;;;5.72;1.77;;;;;;;23.46;44.42;93230.69;4776675;30;20043;-80
2022/06/12 08:38:25;;;;;;;4.45;1.90;;;;;;;23.60;45.63;93229.44;4778093;30;20044;-78
2022/06/12 08:41:01;;;;;;;5.03;2.00;;;;;;;23.70;43.72;93232.31;4792704;29;20047;-78
2022/06/12 08:43:36;;;;;;;5.38;1.92;;;;;;;23.69;44.28;93230.03;4788119;29;20102;-79
2022/06/12 08:46:10;;;;;;;3.90;1.80;;;;;;;23.72;43.94;93231.22;4794337;29;20498;-79
2022/06/12 08:48:57;;;;;;;7.97;1.90;;;;;;;23.39;45.71;93230.50;4785043;29;20414;-78
2022/06/12 08:51:41;;;;;;;5.78;2.47;;;;;;;23.45;43.75;93226.44;4788397;29;20138;-82
2022/06/12 08:54:12;;;;;;;4.88;2.08;;;;;;;23.46;42.63;93232.56;4773728;30;20395;-83
2022/06/12 08:56:47;;;;;;;4.90;1.90;;;;;;;23.58;43.81;93226.34;4790369;29;20071;-83
2022/06/12 08:59:25;;;;;;;8.00;2.72;;;;;;;23.49;43.51;93234.56;4793080;29;20320;-84
2022/06/12 09:01:51;;;;;;;5.30;2.10;;;;;;;23.52;43.02;93225.06;4794298;30;20111;-81
2022/06/12 09:04:20;;;;;;;4.68;2.10;;;;;;;23.53;44.04;93227.41;4794066;29;20093;-81
2022/06/12 09:06:53;;;;;;;6.30;2.55;;;;;;;23.54;43.22;93222.81;4774831;30;20036;-82
2022/06/12 09:09:27;;;;;;;6.72;2.72;;;;;;;23.53;42.63;93223.94;4783951;29;20096;-82
2022/06/12 09:12:13;;;;;;;6.53;2.55;;;;;;;23.73;42.91;93236.19;4791620;29;20047;-82
2022/06/12 09:14:52;;;;;;;7.35;2.38;;;;;;;23.93;42.35;93225.56;4785415;30;20077;-81
2022/06/12 09:17:23;;;;;;;6.22;2.53;;;;;;;24.10;43.32;93227.81;4775509;30;20028;-82
2022/06/12 09:20:15;;;;;;;5.25;1.88;;;;;;;24.14;43.58;93215.28;4787964;29;20045;-83
2022/06/12 09:22:55;;;;;;;7.85;2.53;;;;;;;23.88;43.38;93214.00;4783271;30;20066;-82
2022/06/12 09:25:44;;;;;;;6.15;2.20;;;;;;;23.70;45.20;93221.63;4785381;30;20126;-81
2022/06/12 09:28:34;;;;;;;7.55;2.72;;;;;;;24.00;43.94;93221.13;4792673;29;20047;-81
2022/06/12 09:31:10;;;;;;;7.53;2.40;;;;;;;23.80;43.35;93223.03;4791987;29;20035;-82
2022/06/12 09:33:47;;;;;;;6.28;2.50;;;;;;;23.88;43.14;93222.03;4792609;30;20494;-82
2022/06/12 09:36:41;;;;;;;6.55;2.90;;;;;;;23.90;42.11;93211.75;4791193;30;20126;-82
2022/06/12 09:39:29;;;;;;;3.70;1.98;;;;;;;23.88;43.20;93214.00;4787703;29;20398;-83
2022/06/12 09:42:13;;;;;;;4.93;2.00;;;;;;;23.96;44.73;93211.47;4786499;29;20113;-83
2022/06/12 09:44:58;;;;;;;6.43;2.33;;;;;;;24.17;43.21;93203.88;4786454;29;20063;-81
2022/06/12 09:47:44;;;;;;;10.45;2.55;;;;;;;24.07;42.52;93204.44;4787713;30;20120;-81
2022/06/12 09:50:40;;;;;;;8.82;2.50;;;;;;;24.12;44.45;93204.16;4791160;30;20047;-82
2022/06/12 09:53:15;;;;;;;7.82;2.33;;;;;;;24.24;44.10;93206.66;4775357;30;20066;-83
2022/06/12 09:55:53;;;;;;;10.75;2.97;;;;;;;24.38;42.77;93205.38;4789153;29;20047;-80
2022/06/12 09:58:19;;;;;;;8.52;3.15;;;;;;;24.43;43.23;93205.88;4789065;29;20084;-81
2022/06/12 10:00:47;;;;;;;9.30;3.53;;;;;;;24.44;41.88;93202.06;4791552;30;20452;-83
2022/06/12 10:03:42;;;;;;;7.70;3.00;;;;;;;24.56;42.55;93201.13;4790895;29;20123;-81
2022/06/12 11:35:12;;;;;;;3.95;2.08;;;;;;;25.89;37.22;93104.66;4789542;30;20050;-78
2022/06/12 12:31:22;;;;;;;5.47;2.35;;;;;;;27.05;41.49;93048.09;5169324;24;20457;-89
2022/06/12 12:33:50;;;;;;;5.13;2.58;;;;;;;26.96;38.96;93050.34;4772873;30;20106;-87
2022/06/12 12:43:22;;;;;;;7.47;2.95;;;;;;;25.96;40.57;93051.13;4790053;29;20046;-89
2022/06/12 12:46:08;;;;;;;5.55;2.53;;;;;;;26.31;40.26;93049.13;4772236;29;20045;-88
2022/06/12 12:48:42;;;;;;;5.05;2.72;;;;;;;26.30;38.80;93034.13;4774691;29;20045;-87
2022/06/12 12:51:10;;;;;;;4.93;2.60;;;;;;;26.28;41.09;93031.09;4774831;29;20698;-87
2022/06/12 12:53:39;;;;;;;4.70;2.88;;;;;;;26.06;40.68;93032.81;4774830;29;20396;-88
2022/06/12 12:56:09;;;;;;;6.40;3.03;;;;;;;26.20;41.63;93034.84;4788933;29;20039;-89
2022/06/12 12:59:05;;;;;;;6.85;2.90;;;;;;;26.21;40.49;93029.09;4774610;29;20046;-87
2022/06/12 13:01:45;;;;;;;7.40;2.78;;;;;;;26.57;40.31;93024.03;4774211;29;20039;-87
2022/06/12 13:04:11;;;;;;;8.57;2.88;;;;;;;26.69;39.45;93028.31;4774821;29;20088;-87
2022/06/12 13:07:03;;;;;;;6.28;2.80;;;;;;;26.63;39.00;93027.13;4787905;29;20038;-88
2022/06/12 13:09:47;;;;;;;6.10;2.38;;;;;;;26.58;40.33;93029.00;4774609;29;20043;-89
2022/06/12 13:12:57;;;;;;;6.25;2.67;;;;;;;26.62;40.42;93012.19;4774722;29;20047;-89
2022/06/12 13:15:38;;;;;;;4.78;2.40;;;;;;;26.51;38.72;93006.69;4774430;29;20051;-87
2022/06/12 13:18:41;;;;;;;5.00;2.55;;;;;;;26.72;38.71;93009.53;4775772;29;20038;-88
2022/06/12 13:21:26;;;;;;;7.30;2.60;;;;;;;26.40;38.14;92997.81;4790348;29;20049;-88
2022/06/12 13:24:26;;;;;;;4.32;2.05;;;;;;;26.75;36.46;93003.44;4774062;29;20065;-88
2022/06/12 13:27:18;;;;;;;6.43;2.67;;;;;;;26.69;38.38;92996.88;4780340;30;20194;-89
2022/06/12 13:29:48;;;;;;;5.68;2.70;;;;;;;26.67;37.24;92990.34;4771747;30;20413;-90
2022/06/12 13:32:34;;;;;;;6.10;2.40;;;;;;;26.76;38.13;92988.09;4770881;30;20062;-89
2022/06/12 13:35:07;;;;;;;3.60;2.30;;;;;;;26.70;38.13;92987.66;4756450;30;20051;-89
2022/06/12 13:37:38;;;;;;;5.95;2.42;;;;;;;26.62;38.40;92986.09;4771044;30;20031;-88
2022/06/12 13:40:31;;;;;;;4.82;2.55;;;;;;;26.57;40.45;92994.50;4759637;30;20065;-88
2022/06/12 13:43:34;;;;;;;4.63;2.60;;;;;;;26.83;38.84;92982.75;4774572;29;20111;-88
2022/06/12 13:46:07;;;;;;;5.32;2.80;;;;;;;27.14;39.41;92975.97;4773632;29;20087;-88
2022/06/12 13:48:36;;;;;;;7.00;2.78;;;;;;;27.07;39.43;92975.94;4773933;29;20038;-89
2022/06/12 13:51:33;;;;;;;6.40;2.63;;;;;;;27.18;39.80;92984.81;4774332;29;20061;-87
2022/06/12 13:54:42;;;;;;;7.72;2.33;;;;;;;27.13;38.58;92969.06;4774216;29;20488;-88
2022/06/12 13:57:28;;;;;;;10.00;2.40;;;;;;;26.98;39.36;92972.84;4743049;29;20050;-88
2022/06/12 13:59:53;;;;;;;5.20;2.30;;;;;;;27.05;37.77;92956.75;4773820;29;20062;-88
2022/06/12 14:02:35;;;;;;;5.20;2.58;;;;;;;26.78;36.93;92965.06;4783354;30;20079;-87
2022/06/12 14:05:20;;;;;;;4.25;2.45;;;;;;;26.57;38.07;92971.09;4772621;29;20072;-89
2022/06/12 14:07:58;;;;;;;4.65;2.40;;;;;;;26.47;39.23;92965.63;4774628;29;20042;-90
2022/06/12 14:10:45;;;;;;;6.10;2.40;;;;;;;26.76;38.29;92953.19;4773878;29;20049;-90
2022/06/12 14:13:28;;;;;;;5.43;2.13;;;;;;;26.55;35.80;92943.09;4773144;29;20057;-89
2022/06/12 14:16:12;;;;;;;5.60;2.38;;;;;;;26.74;35.31;92948.16;4774201;29;20077;-89
2022/06/12 14:19:00;;;;;;;5.18;2.30;;;;;;;26.80;36.69;92953.97;4774079;29;20042;-91
2022/06/12 14:21:41;;;;;;;4.82;2.22;;;;;;;26.76;34.54;92940.50;4790297;29;20408;-89
2022/06/12 14:24:21;;;;;;;7.53;2.28;;;;;;;26.88;35.74;92952.84;4772987;29;20476;-89
2022/06/12 14:27:00;;;;;;;5.20;2.25;;;;;;;26.84;34.55;92941.34;4772618;29;20039;-90
2022/06/12 14:29:45;;;;;;;5.63;2.30;;;;;;;26.70;34.92;92952.00;4774242;29;20043;-90
2022/06/12 14:32:41;;;;;;;7.00;2.60;;;;;;;27.00;34.87;92946.38;4788655;29;20160;-89
2022/06/12 14:35:24;;;;;;;13.00;5.78;;;;;;;27.12;34.96;92956.78;4789151;29;20042;-90
2022/06/12 14:37:58;;;;;;;7.40;3.53;;;;;;;27.37;32.28;92950.72;4789237;29;20133;-91
2022/06/12 14:40:41;;;;;;;5.20;2.20;;;;;;;27.11;32.78;92935.66;4756448;30;20043;-90
2022/06/12 14:43:22;;;;;;;4.78;2.20;;;;;;;27.17;36.60;92937.59;4759031;30;20046;-90
2022/06/12 14:45:58;;;;;;;5.97;2.45;;;;;;;26.91;33.35;92943.28;4798512;29;20043;-92